sensor_id;sensor_type;location;lat;lon;timestamp;temperature;humidity
4223;DHT22;2125;51.436;14.138;2023-02-03T00:02:04;2.00;82.30
4223;DHT22;2125;51.436;14.138;2023-02-03T00:04:30;1.90;82.30
4223;DHT22;2125;51.436;14.138;2023-02-03T00:06:57;2.00;82.20
4223;DHT22;2125;51.436;14.138;2023-02-03T00:09:24;2.00;82.20
4223;DHT22;2125;51.436;14.138;2023-02-03T00:11:52;2.00;82.20
4223;DHT22;2125;51.436;14.138;2023-02-03T00:14:19;2.10;82.10
4223;DHT22;2125;51.436;14.138;2023-02-03T00:16:46;2.10;81.90
4223;DHT22;2125;51.436;14.138;2023-02-03T00:19:12;2.10;81.90
4223;DHT22;2125;51.436;14.138;2023-02-03T00:21:39;2.10;82.00
4223;DHT22;2125;51.436;14.138;2023-02-03T00:24:06;2.10;82.00
4223;DHT22;2125;51.436;14.138;2023-02-03T00:26:32;2.10;82.00
4223;DHT22;2125;51.436;14.138;2023-02-03T00:29:00;2.10;82.00
4223;DHT22;2125;51.436;14.138;2023-02-03T00:31:27;2.10;82.00
4223;DHT22;2125;51.436;14.138;2023-02-03T00:33:55;2.20;81.90
4223;DHT22;2125;51.436;14.138;2023-02-03T00:36:23;2.10;81.90
4223;DHT22;2125;51.436;14.138;2023-02-03T00:38:49;2.20;81.90
4223;DHT22;2125;51.436;14.138;2023-02-03T00:41:16;2.20;81.90
4223;DHT22;2125;51.436;14.138;2023-02-03T00:43:43;2.20;81.90
4223;DHT22;2125;51.436;14.138;2023-02-03T00:46:11;2.20;81.90
4223;DHT22;2125;51.436;14.138;2023-02-03T00:48:38;2.20;81.90
4223;DHT22;2125;51.436;14.138;2023-02-03T00:51:05;2.30;81.90
4223;DHT22;2125;51.436;14.138;2023-02-03T00:53:31;2.30;81.90
4223;DHT22;2125;51.436;14.138;2023-02-03T00:55:58;2.30;81.90
4223;DHT22;2125;51.436;14.138;2023-02-03T00:58:25;2.30;82.00
4223;DHT22;2125;51.436;14.138;2023-02-03T01:00:53;2.30;81.90
4223;DHT22;2125;51.436;14.138;2023-02-03T01:03:22;2.40;81.90
4223;DHT22;2125;51.436;14.138;2023-02-03T01:05:48;2.40;81.90
4223;DHT22;2125;51.436;14.138;2023-02-03T01:08:15;2.40;81.90
4223;DHT22;2125;51.436;14.138;2023-02-03T01:10:42;2.40;81.90
4223;DHT22;2125;51.436;14.138;2023-02-03T01:13:08;2.40;81.90
4223;DHT22;2125;51.436;14.138;2023-02-03T01:15:35;2.40;81.90
4223;DHT22;2125;51.436;14.138;2023-02-03T01:18:01;2.40;81.80
4223;DHT22;2125;51.436;14.138;2023-02-03T01:20:29;2.40;81.80
4223;DHT22;2125;51.436;14.138;2023-02-03T01:22:56;2.50;81.80
4223;DHT22;2125;51.436;14.138;2023-02-03T01:25:23;2.50;81.80
4223;DHT22;2125;51.436;14.138;2023-02-03T01:27:49;2.40;81.80
4223;DHT22;2125;51.436;14.138;2023-02-03T01:30:16;2.40;81.80
4223;DHT22;2125;51.436;14.138;2023-02-03T01:32:43;2.50;81.80
4223;DHT22;2125;51.436;14.138;2023-02-03T01:35:10;2.50;81.80
4223;DHT22;2125;51.436;14.138;2023-02-03T01:37:37;2.50;81.70
4223;DHT22;2125;51.436;14.138;2023-02-03T01:40:05;2.50;81.70
4223;DHT22;2125;51.436;14.138;2023-02-03T01:42:32;2.50;81.70
4223;DHT22;2125;51.436;14.138;2023-02-03T01:44:59;2.60;81.70
4223;DHT22;2125;51.436;14.138;2023-02-03T01:47:30;2.60;81.70
4223;DHT22;2125;51.436;14.138;2023-02-03T01:50:06;2.60;81.70
4223;DHT22;2125;51.436;14.138;2023-02-03T01:52:35;2.60;81.70
4223;DHT22;2125;51.436;14.138;2023-02-03T01:55:07;2.60;81.70
4223;DHT22;2125;51.436;14.138;2023-02-03T01:57:37;2.60;81.70
4223;DHT22;2125;51.436;14.138;2023-02-03T02:00:06;2.60;81.70
4223;DHT22;2125;51.436;14.138;2023-02-03T02:02:34;2.60;81.70
4223;DHT22;2125;51.436;14.138;2023-02-03T02:05:04;2.60;81.70
4223;DHT22;2125;51.436;14.138;2023-02-03T02:07:32;2.60;81.60
4223;DHT22;2125;51.436;14.138;2023-02-03T02:09:59;2.60;81.60
4223;DHT22;2125;51.436;14.138;2023-02-03T02:12:27;2.60;81.60
4223;DHT22;2125;51.436;14.138;2023-02-03T02:14:54;2.60;81.60
4223;DHT22;2125;51.436;14.138;2023-02-03T02:17:36;2.60;81.60
4223;DHT22;2125;51.436;14.138;2023-02-03T02:20:35;2.60;81.60
4223;DHT22;2125;51.436;14.138;2023-02-03T02:26:48;2.60;81.60
4223;DHT22;2125;51.436;14.138;2023-02-03T02:32:27;2.60;81.60
4223;DHT22;2125;51.436;14.138;2023-02-03T02:35:02;2.60;81.60
4223;DHT22;2125;51.436;14.138;2023-02-03T02:37:36;2.50;81.40
4223;DHT22;2125;51.436;14.138;2023-02-03T02:40:10;2.50;81.40
4223;DHT22;2125;51.436;14.138;2023-02-03T02:42:49;2.50;81.50
4223;DHT22;2125;51.436;14.138;2023-02-03T02:45:24;2.50;81.50
4223;DHT22;2125;51.436;14.138;2023-02-03T02:47:56;2.50;81.40
4223;DHT22;2125;51.436;14.138;2023-02-03T02:50:28;2.40;81.60
4223;DHT22;2125;51.436;14.138;2023-02-03T02:52:55;2.40;81.50
4223;DHT22;2125;51.436;14.138;2023-02-03T02:55:25;2.40;81.50
4223;DHT22;2125;51.436;14.138;2023-02-03T02:57:56;2.40;81.50
4223;DHT22;2125;51.436;14.138;2023-02-03T03:00:23;2.40;81.60
4223;DHT22;2125;51.436;14.138;2023-02-03T03:02:50;2.40;81.50
4223;DHT22;2125;51.436;14.138;2023-02-03T03:05:18;2.40;81.50
4223;DHT22;2125;51.436;14.138;2023-02-03T03:07:49;2.40;81.50
4223;DHT22;2125;51.436;14.138;2023-02-03T03:10:21;2.40;81.50
4223;DHT22;2125;51.436;14.138;2023-02-03T03:12:53;2.40;81.50
4223;DHT22;2125;51.436;14.138;2023-02-03T03:15:27;2.50;81.50
4223;DHT22;2125;51.436;14.138;2023-02-03T03:17:59;2.50;81.60
4223;DHT22;2125;51.436;14.138;2023-02-03T03:20:28;2.50;81.40
4223;DHT22;2125;51.436;14.138;2023-02-03T03:23:00;2.50;81.60
4223;DHT22;2125;51.436;14.138;2023-02-03T03:25:33;2.50;81.60
4223;DHT22;2125;51.436;14.138;2023-02-03T03:28:06;2.50;81.60
4223;DHT22;2125;51.436;14.138;2023-02-03T03:30:35;2.50;81.60
4223;DHT22;2125;51.436;14.138;2023-02-03T03:33:03;2.50;81.60
4223;DHT22;2125;51.436;14.138;2023-02-03T03:35:38;2.50;81.60
4223;DHT22;2125;51.436;14.138;2023-02-03T03:38:10;2.60;81.40
4223;DHT22;2125;51.436;14.138;2023-02-03T03:40:40;2.70;81.40
4223;DHT22;2125;51.436;14.138;2023-02-03T03:43:13;2.70;81.60
4223;DHT22;2125;51.436;14.138;2023-02-03T03:45:43;2.70;81.40
4223;DHT22;2125;51.436;14.138;2023-02-03T03:48:13;2.70;81.40
4223;DHT22;2125;51.436;14.138;2023-02-03T03:50:45;2.80;81.40
4223;DHT22;2125;51.436;14.138;2023-02-03T03:53:14;2.80;81.30
4223;DHT22;2125;51.436;14.138;2023-02-03T03:55:44;2.80;81.40
4223;DHT22;2125;51.436;14.138;2023-02-03T03:58:15;2.80;81.40
4223;DHT22;2125;51.436;14.138;2023-02-03T04:00:44;2.80;81.40
4223;DHT22;2125;51.436;14.138;2023-02-03T04:03:14;3.00;81.20
4223;DHT22;2125;51.436;14.138;2023-02-03T04:05:43;3.00;81.20
4223;DHT22;2125;51.436;14.138;2023-02-03T04:08:10;3.10;81.10
4223;DHT22;2125;51.436;14.138;2023-02-03T04:10:38;3.20;81.00
4223;DHT22;2125;51.436;14.138;2023-02-03T04:13:06;3.30;80.90
4223;DHT22;2125;51.436;14.138;2023-02-03T04:15:33;3.30;80.80
4223;DHT22;2125;51.436;14.138;2023-02-03T04:18:00;3.40;80.60
4223;DHT22;2125;51.436;14.138;2023-02-03T04:20:28;3.50;80.60
4223;DHT22;2125;51.436;14.138;2023-02-03T04:22:56;3.50;80.50
4223;DHT22;2125;51.436;14.138;2023-02-03T04:25:24;3.60;80.40
4223;DHT22;2125;51.436;14.138;2023-02-03T04:27:51;3.60;80.30
4223;DHT22;2125;51.436;14.138;2023-02-03T04:30:17;3.70;80.20
4223;DHT22;2125;51.436;14.138;2023-02-03T04:32:44;3.80;80.10
4223;DHT22;2125;51.436;14.138;2023-02-03T04:35:11;3.90;80.10
4223;DHT22;2125;51.436;14.138;2023-02-03T04:37:37;3.90;80.10
4223;DHT22;2125;51.436;14.138;2023-02-03T04:40:07;3.90;80.10
4223;DHT22;2125;51.436;14.138;2023-02-03T04:42:35;4.00;80.00
4223;DHT22;2125;51.436;14.138;2023-02-03T04:45:03;4.00;79.90
4223;DHT22;2125;51.436;14.138;2023-02-03T04:47:29;4.10;79.70
4223;DHT22;2125;51.436;14.138;2023-02-03T04:49:56;4.10;79.70
4223;DHT22;2125;51.436;14.138;2023-02-03T04:52:22;4.10;79.70
4223;DHT22;2125;51.436;14.138;2023-02-03T04:54:49;4.20;79.70
4223;DHT22;2125;51.436;14.138;2023-02-03T04:57:17;4.30;79.60
4223;DHT22;2125;51.436;14.138;2023-02-03T04:59:43;4.40;79.60
4223;DHT22;2125;51.436;14.138;2023-02-03T05:02:10;4.50;79.60
4223;DHT22;2125;51.436;14.138;2023-02-03T05:04:36;4.60;79.30
4223;DHT22;2125;51.436;14.138;2023-02-03T05:07:03;4.70;79.30
4223;DHT22;2125;51.436;14.138;2023-02-03T05:09:30;4.80;79.30
4223;DHT22;2125;51.436;14.138;2023-02-03T05:11:56;4.90;79.30
4223;DHT22;2125;51.436;14.138;2023-02-03T05:14:24;5.00;79.30
4223;DHT22;2125;51.436;14.138;2023-02-03T05:16:51;5.00;79.20
4223;DHT22;2125;51.436;14.138;2023-02-03T05:19:17;5.10;79.20
4223;DHT22;2125;51.436;14.138;2023-02-03T05:21:44;5.10;79.20
4223;DHT22;2125;51.436;14.138;2023-02-03T05:24:11;5.20;79.10
4223;DHT22;2125;51.436;14.138;2023-02-03T05:26:37;5.20;79.00
4223;DHT22;2125;51.436;14.138;2023-02-03T05:29:04;5.30;79.00
4223;DHT22;2125;51.436;14.138;2023-02-03T05:31:32;5.30;78.90
4223;DHT22;2125;51.436;14.138;2023-02-03T05:33:59;5.30;78.90
4223;DHT22;2125;51.436;14.138;2023-02-03T05:36:25;5.40;78.90
4223;DHT22;2125;51.436;14.138;2023-02-03T05:38:52;5.40;78.80
4223;DHT22;2125;51.436;14.138;2023-02-03T05:41:18;5.40;78.80
4223;DHT22;2125;51.436;14.138;2023-02-03T05:44:03;5.40;78.80
4223;DHT22;2125;51.436;14.138;2023-02-03T05:46:29;5.40;78.70
4223;DHT22;2125;51.436;14.138;2023-02-03T05:48:57;5.50;78.70
4223;DHT22;2125;51.436;14.138;2023-02-03T05:51:24;5.50;78.70
4223;DHT22;2125;51.436;14.138;2023-02-03T05:53:50;5.50;78.70
4223;DHT22;2125;51.436;14.138;2023-02-03T05:56:18;5.50;78.70
4223;DHT22;2125;51.436;14.138;2023-02-03T05:58:44;5.60;78.70
4223;DHT22;2125;51.436;14.138;2023-02-03T06:01:11;5.60;78.60
4223;DHT22;2125;51.436;14.138;2023-02-03T06:03:37;5.60;78.50
4223;DHT22;2125;51.436;14.138;2023-02-03T06:06:05;5.60;78.50
4223;DHT22;2125;51.436;14.138;2023-02-03T06:08:32;5.60;78.50
4223;DHT22;2125;51.436;14.138;2023-02-03T06:10:59;5.60;78.50
4223;DHT22;2125;51.436;14.138;2023-02-03T06:13:25;5.60;78.50
4223;DHT22;2125;51.436;14.138;2023-02-03T06:15:52;5.70;78.50
4223;DHT22;2125;51.436;14.138;2023-02-03T06:18:19;5.70;78.60
4223;DHT22;2125;51.436;14.138;2023-02-03T06:20:45;5.70;78.60
4223;DHT22;2125;51.436;14.138;2023-02-03T06:23:13;5.80;78.60
4223;DHT22;2125;51.436;14.138;2023-02-03T06:25:41;5.80;78.60
4223;DHT22;2125;51.436;14.138;2023-02-03T06:28:08;5.80;78.50
4223;DHT22;2125;51.436;14.138;2023-02-03T06:30:34;5.80;78.60
4223;DHT22;2125;51.436;14.138;2023-02-03T06:33:01;5.80;78.50
4223;DHT22;2125;51.436;14.138;2023-02-03T06:35:28;5.80;78.50
4223;DHT22;2125;51.436;14.138;2023-02-03T06:37:54;5.90;78.50
4223;DHT22;2125;51.436;14.138;2023-02-03T06:40:22;5.90;78.50
4223;DHT22;2125;51.436;14.138;2023-02-03T06:42:49;5.90;78.50
4223;DHT22;2125;51.436;14.138;2023-02-03T06:45:16;5.90;78.50
4223;DHT22;2125;51.436;14.138;2023-02-03T06:47:44;5.90;78.50
4223;DHT22;2125;51.436;14.138;2023-02-03T06:50:12;5.90;78.50
4223;DHT22;2125;51.436;14.138;2023-02-03T06:52:40;5.90;78.60
4223;DHT22;2125;51.436;14.138;2023-02-03T06:55:07;6.00;78.50
4223;DHT22;2125;51.436;14.138;2023-02-03T06:57:41;6.00;78.60
4223;DHT22;2125;51.436;14.138;2023-02-03T07:00:10;6.00;78.60
4223;DHT22;2125;51.436;14.138;2023-02-03T07:02:37;6.00;78.60
4223;DHT22;2125;51.436;14.138;2023-02-03T07:05:04;6.00;78.60
4223;DHT22;2125;51.436;14.138;2023-02-03T07:07:31;6.00;78.60
4223;DHT22;2125;51.436;14.138;2023-02-03T07:09:58;6.00;78.60
4223;DHT22;2125;51.436;14.138;2023-02-03T07:12:26;6.00;78.60
4223;DHT22;2125;51.436;14.138;2023-02-03T07:14:54;6.00;78.60
4223;DHT22;2125;51.436;14.138;2023-02-03T07:17:20;6.00;78.70
4223;DHT22;2125;51.436;14.138;2023-02-03T07:19:47;6.00;78.70
4223;DHT22;2125;51.436;14.138;2023-02-03T07:22:13;6.10;78.70
4223;DHT22;2125;51.436;14.138;2023-02-03T07:24:40;6.10;78.70
4223;DHT22;2125;51.436;14.138;2023-02-03T07:27:06;6.10;78.80
4223;DHT22;2125;51.436;14.138;2023-02-03T07:29:33;6.10;78.80
4223;DHT22;2125;51.436;14.138;2023-02-03T07:32:01;6.10;78.80
4223;DHT22;2125;51.436;14.138;2023-02-03T07:34:28;6.20;78.90
4223;DHT22;2125;51.436;14.138;2023-02-03T07:36:55;6.20;79.00
4223;DHT22;2125;51.436;14.138;2023-02-03T07:39:21;6.20;79.10
4223;DHT22;2125;51.436;14.138;2023-02-03T07:41:48;6.20;79.10
4223;DHT22;2125;51.436;14.138;2023-02-03T07:44:14;6.30;79.20
4223;DHT22;2125;51.436;14.138;2023-02-03T07:46:41;6.30;79.40
4223;DHT22;2125;51.436;14.138;2023-02-03T07:49:10;6.30;79.50
4223;DHT22;2125;51.436;14.138;2023-02-03T07:51:37;6.30;79.60
4223;DHT22;2125;51.436;14.138;2023-02-03T07:54:04;6.30;79.60
4223;DHT22;2125;51.436;14.138;2023-02-03T07:56:31;6.30;79.50
4223;DHT22;2125;51.436;14.138;2023-02-03T07:58:57;6.30;79.50
4223;DHT22;2125;51.436;14.138;2023-02-03T08:01:24;6.40;79.40
4223;DHT22;2125;51.436;14.138;2023-02-03T08:03:51;6.40;79.40
4223;DHT22;2125;51.436;14.138;2023-02-03T08:06:19;6.30;79.20
4223;DHT22;2125;51.436;14.138;2023-02-03T08:08:46;6.30;79.20
4223;DHT22;2125;51.436;14.138;2023-02-03T08:11:12;6.30;79.00
4223;DHT22;2125;51.436;14.138;2023-02-03T08:13:39;6.30;79.00
4223;DHT22;2125;51.436;14.138;2023-02-03T08:16:06;6.30;79.00
4223;DHT22;2125;51.436;14.138;2023-02-03T08:18:32;6.40;78.90
4223;DHT22;2125;51.436;14.138;2023-02-03T08:20:59;6.40;78.90
4223;DHT22;2125;51.436;14.138;2023-02-03T08:23:29;6.40;78.90
4223;DHT22;2125;51.436;14.138;2023-02-03T08:25:56;6.40;78.90
4223;DHT22;2125;51.436;14.138;2023-02-03T08:28:22;6.40;78.90
4223;DHT22;2125;51.436;14.138;2023-02-03T08:30:50;6.40;78.80
4223;DHT22;2125;51.436;14.138;2023-02-03T08:33:16;6.40;78.70
4223;DHT22;2125;51.436;14.138;2023-02-03T08:35:45;6.40;78.70
4223;DHT22;2125;51.436;14.138;2023-02-03T08:38:11;6.40;78.60
4223;DHT22;2125;51.436;14.138;2023-02-03T08:40:39;6.40;78.60
4223;DHT22;2125;51.436;14.138;2023-02-03T08:43:06;6.40;78.50
4223;DHT22;2125;51.436;14.138;2023-02-03T08:45:33;6.40;78.50
4223;DHT22;2125;51.436;14.138;2023-02-03T08:47:59;6.40;78.50
4223;DHT22;2125;51.436;14.138;2023-02-03T08:50:26;6.40;78.50
4223;DHT22;2125;51.436;14.138;2023-02-03T08:52:52;6.50;78.50
4223;DHT22;2125;51.436;14.138;2023-02-03T08:55:19;6.50;78.40
4223;DHT22;2125;51.436;14.138;2023-02-03T08:57:47;6.50;78.40
4223;DHT22;2125;51.436;14.138;2023-02-03T09:00:14;6.50;78.40
4223;DHT22;2125;51.436;14.138;2023-02-03T09:02:41;6.50;78.30
4223;DHT22;2125;51.436;14.138;2023-02-03T09:05:08;6.40;78.30
4223;DHT22;2125;51.436;14.138;2023-02-03T09:07:35;6.50;78.30
4223;DHT22;2125;51.436;14.138;2023-02-03T09:10:02;6.50;78.30
4223;DHT22;2125;51.436;14.138;2023-02-03T09:12:28;6.50;78.30
4223;DHT22;2125;51.436;14.138;2023-02-03T09:14:56;6.50;78.20
4223;DHT22;2125;51.436;14.138;2023-02-03T09:17:23;6.50;78.20
4223;DHT22;2125;51.436;14.138;2023-02-03T09:19:49;6.50;78.20
4223;DHT22;2125;51.436;14.138;2023-02-03T09:22:18;6.50;78.20
4223;DHT22;2125;51.436;14.138;2023-02-03T09:24:44;6.50;78.20
4223;DHT22;2125;51.436;14.138;2023-02-03T09:27:12;6.50;78.20
4223;DHT22;2125;51.436;14.138;2023-02-03T09:29:39;6.50;78.20
4223;DHT22;2125;51.436;14.138;2023-02-03T09:32:07;6.60;78.20
4223;DHT22;2125;51.436;14.138;2023-02-03T09:34:37;6.50;78.20
4223;DHT22;2125;51.436;14.138;2023-02-03T09:37:04;6.50;78.20
4223;DHT22;2125;51.436;14.138;2023-02-03T09:39:36;6.50;78.20
4223;DHT22;2125;51.436;14.138;2023-02-03T09:42:18;6.50;78.20
4223;DHT22;2125;51.436;14.138;2023-02-03T09:44:57;6.50;78.20
4223;DHT22;2125;51.436;14.138;2023-02-03T09:47:30;6.50;78.20
4223;DHT22;2125;51.436;14.138;2023-02-03T09:50:00;6.50;78.20
4223;DHT22;2125;51.436;14.138;2023-02-03T09:52:30;6.50;78.20
4223;DHT22;2125;51.436;14.138;2023-02-03T09:55:00;6.60;78.20
4223;DHT22;2125;51.436;14.138;2023-02-03T09:57:31;6.60;78.20
4223;DHT22;2125;51.436;14.138;2023-02-03T10:00:13;6.60;78.20
4223;DHT22;2125;51.436;14.138;2023-02-03T10:02:52;6.60;78.20
4223;DHT22;2125;51.436;14.138;2023-02-03T10:05:45;6.60;78.20
4223;DHT22;2125;51.436;14.138;2023-02-03T10:08:21;6.60;78.20
4223;DHT22;2125;51.436;14.138;2023-02-03T10:10:56;6.60;78.20
4223;DHT22;2125;51.436;14.138;2023-02-03T10:13:42;6.60;78.20
4223;DHT22;2125;51.436;14.138;2023-02-03T10:16:28;6.60;78.10
4223;DHT22;2125;51.436;14.138;2023-02-03T10:19:02;6.60;78.20
4223;DHT22;2125;51.436;14.138;2023-02-03T10:21:35;6.60;78.20
4223;DHT22;2125;51.436;14.138;2023-02-03T10:24:04;6.60;78.10
4223;DHT22;2125;51.436;14.138;2023-02-03T10:26:31;6.60;78.10
4223;DHT22;2125;51.436;14.138;2023-02-03T10:29:05;6.60;78.10
4223;DHT22;2125;51.436;14.138;2023-02-03T10:31:35;6.70;78.00
4223;DHT22;2125;51.436;14.138;2023-02-03T10:34:09;6.70;78.10
4223;DHT22;2125;51.436;14.138;2023-02-03T10:36:45;6.70;78.10
4223;DHT22;2125;51.436;14.138;2023-02-03T10:39:20;6.70;78.00
4223;DHT22;2125;51.436;14.138;2023-02-03T10:41:50;6.70;78.00
4223;DHT22;2125;51.436;14.138;2023-02-03T10:44:16;6.70;78.00
4223;DHT22;2125;51.436;14.138;2023-02-03T10:46:43;6.70;78.00
4223;DHT22;2125;51.436;14.138;2023-02-03T10:49:12;6.70;78.00
4223;DHT22;2125;51.436;14.138;2023-02-03T10:51:43;6.70;77.90
4223;DHT22;2125;51.436;14.138;2023-02-03T10:54:26;6.70;77.90
4223;DHT22;2125;51.436;14.138;2023-02-03T10:56:54;6.70;78.00
4223;DHT22;2125;51.436;14.138;2023-02-03T10:59:28;6.70;77.80
4223;DHT22;2125;51.436;14.138;2023-02-03T11:01:56;6.70;77.80
4223;DHT22;2125;51.436;14.138;2023-02-03T11:04:25;6.70;77.80
4223;DHT22;2125;51.436;14.138;2023-02-03T11:06:54;6.70;77.80
4223;DHT22;2125;51.436;14.138;2023-02-03T11:09:27;6.70;77.80
4223;DHT22;2125;51.436;14.138;2023-02-03T11:12:06;6.80;77.80
4223;DHT22;2125;51.436;14.138;2023-02-03T11:14:37;6.80;77.80
4223;DHT22;2125;51.436;14.138;2023-02-03T11:17:06;6.80;77.80
4223;DHT22;2125;51.436;14.138;2023-02-03T11:19:36;6.80;77.80
4223;DHT22;2125;51.436;14.138;2023-02-03T11:22:04;6.80;77.80
4223;DHT22;2125;51.436;14.138;2023-02-03T11:24:32;6.90;77.80
4223;DHT22;2125;51.436;14.138;2023-02-03T11:27:04;6.90;77.80
4223;DHT22;2125;51.436;14.138;2023-02-03T11:29:34;6.90;77.80
4223;DHT22;2125;51.436;14.138;2023-02-03T11:32:04;7.00;77.80
4223;DHT22;2125;51.436;14.138;2023-02-03T11:34:36;6.90;77.80
4223;DHT22;2125;51.436;14.138;2023-02-03T11:37:23;6.90;77.80
4223;DHT22;2125;51.436;14.138;2023-02-03T11:39:54;7.00;77.80
4223;DHT22;2125;51.436;14.138;2023-02-03T11:42:22;7.00;77.80
4223;DHT22;2125;51.436;14.138;2023-02-03T11:44:49;7.00;77.80
4223;DHT22;2125;51.436;14.138;2023-02-03T11:47:18;7.00;77.80
4223;DHT22;2125;51.436;14.138;2023-02-03T11:49:59;7.00;77.80
4223;DHT22;2125;51.436;14.138;2023-02-03T11:52:40;7.00;77.80
4223;DHT22;2125;51.436;14.138;2023-02-03T11:55:19;7.00;77.80
4223;DHT22;2125;51.436;14.138;2023-02-03T11:57:54;7.00;77.80
4223;DHT22;2125;51.436;14.138;2023-02-03T12:00:29;7.00;77.80
4223;DHT22;2125;51.436;14.138;2023-02-03T12:03:20;7.00;77.80
4223;DHT22;2125;51.436;14.138;2023-02-03T12:06:00;7.00;77.80
4223;DHT22;2125;51.436;14.138;2023-02-03T12:08:42;7.00;77.90
4223;DHT22;2125;51.436;14.138;2023-02-03T12:11:18;7.00;77.90
4223;DHT22;2125;51.436;14.138;2023-02-03T12:14:00;7.10;78.00
4223;DHT22;2125;51.436;14.138;2023-02-03T12:16:57;7.10;78.00
4223;DHT22;2125;51.436;14.138;2023-02-03T12:19:35;7.10;78.00
4223;DHT22;2125;51.436;14.138;2023-02-03T12:22:12;7.10;78.00
4223;DHT22;2125;51.436;14.138;2023-02-03T12:24:47;7.10;78.10
4223;DHT22;2125;51.436;14.138;2023-02-03T12:27:23;7.20;78.10
4223;DHT22;2125;51.436;14.138;2023-02-03T12:29:56;7.20;78.20
4223;DHT22;2125;51.436;14.138;2023-02-03T12:32:31;7.20;78.10
4223;DHT22;2125;51.436;14.138;2023-02-03T12:35:12;7.20;78.00
4223;DHT22;2125;51.436;14.138;2023-02-03T12:37:47;7.20;77.90
4223;DHT22;2125;51.436;14.138;2023-02-03T12:40:19;7.20;78.00
4223;DHT22;2125;51.436;14.138;2023-02-03T13:39:06;6.30;84.50
4223;DHT22;2125;51.436;14.138;2023-02-03T13:41:39;6.70;86.50
4223;DHT22;2125;51.436;14.138;2023-02-03T13:44:10;6.60;86.40
4223;DHT22;2125;51.436;14.138;2023-02-03T13:46:38;6.70;86.40
4223;DHT22;2125;51.436;14.138;2023-02-03T13:49:06;6.70;86.40
4223;DHT22;2125;51.436;14.138;2023-02-03T13:51:35;6.70;86.40
4223;DHT22;2125;51.436;14.138;2023-02-03T13:54:05;6.90;86.30
4223;DHT22;2125;51.436;14.138;2023-02-03T13:56:33;6.90;86.30
4223;DHT22;2125;51.436;14.138;2023-02-03T13:59:04;6.90;86.30
4223;DHT22;2125;51.436;14.138;2023-02-03T14:01:34;7.00;86.30
4223;DHT22;2125;51.436;14.138;2023-02-03T14:04:02;7.20;86.30
4223;DHT22;2125;51.436;14.138;2023-02-03T14:06:57;7.20;85.90
4223;DHT22;2125;51.436;14.138;2023-02-03T14:09:41;7.40;85.80
4223;DHT22;2125;51.436;14.138;2023-02-03T14:12:19;7.50;85.00
4223;DHT22;2125;51.436;14.138;2023-02-03T14:14:58;7.60;84.40
4223;DHT22;2125;51.436;14.138;2023-02-03T14:17:59;7.80;84.50
4223;DHT22;2125;51.436;14.138;2023-02-03T14:20:46;7.60;84.60
4223;DHT22;2125;51.436;14.138;2023-02-03T14:23:21;7.40;84.30
4223;DHT22;2125;51.436;14.138;2023-02-03T14:25:54;7.20;85.30
4223;DHT22;2125;51.436;14.138;2023-02-03T14:28:24;6.20;85.90
4223;DHT22;2125;51.436;14.138;2023-02-03T14:31:02;5.40;85.80
4223;DHT22;2125;51.436;14.138;2023-02-03T14:36:38;5.10;85.40
4223;DHT22;2125;51.436;14.138;2023-02-03T14:39:30;5.20;85.40
4223;DHT22;2125;51.436;14.138;2023-02-03T14:42:08;5.20;85.10
4223;DHT22;2125;51.436;14.138;2023-02-03T14:44:44;5.30;85.40
4223;DHT22;2125;51.436;14.138;2023-02-03T14:47:24;5.40;85.70
4223;DHT22;2125;51.436;14.138;2023-02-03T14:50:04;5.50;86.10
4223;DHT22;2125;51.436;14.138;2023-02-03T14:52:47;5.60;86.60
4223;DHT22;2125;51.436;14.138;2023-02-03T14:55:28;5.70;86.80
4223;DHT22;2125;51.436;14.138;2023-02-03T14:58:01;5.80;86.60
4223;DHT22;2125;51.436;14.138;2023-02-03T15:00:31;5.80;86.90
4223;DHT22;2125;51.436;14.138;2023-02-03T15:06:04;5.90;86.20
4223;DHT22;2125;51.436;14.138;2023-02-03T15:08:33;5.80;86.30
4223;DHT22;2125;51.436;14.138;2023-02-03T15:11:14;5.80;86.30
4223;DHT22;2125;51.436;14.138;2023-02-03T15:13:42;5.80;86.20
4223;DHT22;2125;51.436;14.138;2023-02-03T15:16:13;5.90;86.30
4223;DHT22;2125;51.436;14.138;2023-02-03T15:18:41;5.80;86.70
4223;DHT22;2125;51.436;14.138;2023-02-03T15:21:14;5.70;86.60
4223;DHT22;2125;51.436;14.138;2023-02-03T15:23:42;5.60;86.70
4223;DHT22;2125;51.436;14.138;2023-02-03T15:26:14;5.50;86.70
4223;DHT22;2125;51.436;14.138;2023-02-03T15:28:58;5.40;86.70
4223;DHT22;2125;51.436;14.138;2023-02-03T15:31:30;5.30;86.70
4223;DHT22;2125;51.436;14.138;2023-02-03T15:34:02;5.30;86.70
4223;DHT22;2125;51.436;14.138;2023-02-03T15:36:34;5.30;86.80
4223;DHT22;2125;51.436;14.138;2023-02-03T15:39:09;5.30;86.90
4223;DHT22;2125;51.436;14.138;2023-02-03T15:41:38;5.40;86.70
4223;DHT22;2125;51.436;14.138;2023-02-03T15:44:10;5.40;86.70
4223;DHT22;2125;51.436;14.138;2023-02-03T15:46:41;5.30;86.60
4223;DHT22;2125;51.436;14.138;2023-02-03T15:49:12;5.40;86.70
4223;DHT22;2125;51.436;14.138;2023-02-03T15:51:43;5.50;86.70
4223;DHT22;2125;51.436;14.138;2023-02-03T15:54:14;5.50;86.80
4223;DHT22;2125;51.436;14.138;2023-02-03T15:56:45;5.50;86.60
4223;DHT22;2125;51.436;14.138;2023-02-03T15:59:22;5.50;86.70
4223;DHT22;2125;51.436;14.138;2023-02-03T16:01:50;5.50;86.70
4223;DHT22;2125;51.436;14.138;2023-02-03T16:04:17;5.50;86.60
4223;DHT22;2125;51.436;14.138;2023-02-03T16:06:45;5.50;86.70
4223;DHT22;2125;51.436;14.138;2023-02-03T16:09:30;5.50;86.60
4223;DHT22;2125;51.436;14.138;2023-02-03T16:12:02;5.60;86.70
4223;DHT22;2125;51.436;14.138;2023-02-03T16:14:33;5.60;86.70
4223;DHT22;2125;51.436;14.138;2023-02-03T16:17:00;5.70;86.90
4223;DHT22;2125;51.436;14.138;2023-02-03T16:19:28;5.80;86.70
4223;DHT22;2125;51.436;14.138;2023-02-03T16:21:57;5.80;86.80
4223;DHT22;2125;51.436;14.138;2023-02-03T16:24:36;5.80;86.80
4223;DHT22;2125;51.436;14.138;2023-02-03T16:27:27;5.90;86.80
4223;DHT22;2125;51.436;14.138;2023-02-03T16:30:19;5.90;86.70
4223;DHT22;2125;51.436;14.138;2023-02-03T16:33:11;6.00;86.60
4223;DHT22;2125;51.436;14.138;2023-02-03T16:35:57;6.00;86.30
4223;DHT22;2125;51.436;14.138;2023-02-03T16:38:44;6.10;86.30
4223;DHT22;2125;51.436;14.138;2023-02-03T16:41:29;6.10;86.00
4223;DHT22;2125;51.436;14.138;2023-02-03T16:44:14;6.10;86.00
4223;DHT22;2125;51.436;14.138;2023-02-03T16:46:59;6.20;86.10
4223;DHT22;2125;51.436;14.138;2023-02-03T16:49:44;6.20;85.80
4223;DHT22;2125;51.436;14.138;2023-02-03T16:52:28;6.30;85.00
4223;DHT22;2125;51.436;14.138;2023-02-03T16:54:54;6.30;85.20
4223;DHT22;2125;51.436;14.138;2023-02-03T16:57:21;6.30;85.20
4223;DHT22;2125;51.436;14.138;2023-02-03T16:59:47;6.40;84.40
4223;DHT22;2125;51.436;14.138;2023-02-03T17:02:15;6.40;84.70
4223;DHT22;2125;51.436;14.138;2023-02-03T17:04:42;6.40;84.20
4223;DHT22;2125;51.436;14.138;2023-02-03T17:07:08;6.40;84.20
4223;DHT22;2125;51.436;14.138;2023-02-03T17:09:35;6.40;84.10
4223;DHT22;2125;51.436;14.138;2023-02-03T17:12:02;6.40;84.20
4223;DHT22;2125;51.436;14.138;2023-02-03T17:14:29;6.50;83.00
4223;DHT22;2125;51.436;14.138;2023-02-03T17:16:56;6.60;83.50
4223;DHT22;2125;51.436;14.138;2023-02-03T17:19:24;6.60;83.30
4223;DHT22;2125;51.436;14.138;2023-02-03T17:21:50;6.50;84.30
4223;DHT22;2125;51.436;14.138;2023-02-03T17:24:17;6.40;84.40
4223;DHT22;2125;51.436;14.138;2023-02-03T17:26:44;6.40;84.40
4223;DHT22;2125;51.436;14.138;2023-02-03T17:29:10;6.40;85.00
4223;DHT22;2125;51.436;14.138;2023-02-03T17:31:37;6.30;85.10
4223;DHT22;2125;51.436;14.138;2023-02-03T17:34:04;6.30;85.20